Time;durP1;ratioP1;P1;durP2;ratioP2;P2;SDS_P1;SDS_P2;PMS_P1;PMS_P2;Temp;Humidity;BMP_temperature;BMP_pressure;BME280_temperature;BME280_humidity;BME280_pressure;Samples;Min_cycle;Max_cycle;Signal;HPM_P1;HPM_P2
2021/04/10 00:00:21;;;;;;;23.73;15.30;;;6.00;91.70;;;;;;5050190;28;20025;-81
2021/04/10 00:02:50;;;;;;;26.08;15.70;;;6.00;91.40;;;;;;5063962;28;20104;-82
2021/04/10 00:05:22;;;;;;;22.52;13.95;;;5.90;91.80;;;;;;5059404;28;20422;-78
2021/04/10 00:07:48;;;;;;;23.45;14.90;;;6.00;91.60;;;;;;5059605;28;20472;-84
2021/04/10 00:10:14;;;;;;;25.20;13.80;;;6.10;91.80;;;;;;5059861;28;20032;-79
2021/04/10 00:12:41;;;;;;;20.23;13.70;;;6.00;92.20;;;;;;5053694;28;20021;-81
2021/04/10 00:15:10;;;;;;;25.45;14.75;;;5.90;92.90;;;;;;5054336;28;20029;-84
2021/04/10 00:17:36;;;;;;;20.20;14.13;;;5.80;93.50;;;;;;5053672;28;20053;-85
2021/04/10 00:20:07;;;;;;;24.85;14.35;;;5.60;94.30;;;;;;5071319;28;20064;-80
2021/04/10 00:22:33;;;;;;;27.13;13.45;;;5.60;93.90;;;;;;5055933;28;20043;-85
2021/04/10 00:24:59;;;;;;;22.27;14.55;;;5.50;94.10;;;;;;5072632;28;20020;-80
2021/04/10 00:27:25;;;;;;;19.10;13.20;;;5.60;95.30;;;;;;5055458;28;20094;-83
2021/04/10 00:29:50;;;;;;;24.80;15.15;;;5.60;94.80;;;;;;5072568;28;20032;-85
2021/04/10 00:32:16;;;;;;;24.50;14.50;;;5.80;94.20;;;;;;5056825;28;20032;-81
2021/04/10 00:34:42;;;;;;;23.10;14.82;;;5.90;93.70;;;;;;5074499;28;20073;-86
2021/04/10 00:37:07;;;;;;;20.75;14.10;;;5.60;94.60;;;;;;5075035;28;20085;-77
2021/04/10 00:39:33;;;;;;;21.35;13.98;;;5.50;95.80;;;;;;5074664;28;20016;-82
2021/04/10 00:41:59;;;;;;;21.52;13.93;;;5.60;95.70;;;;;;5075516;28;20480;-86
2021/04/10 00:44:25;;;;;;;19.80;13.00;;;5.60;96.00;;;;;;5075924;28;20025;-89
2021/04/10 00:46:50;;;;;;;22.35;13.95;;;5.70;95.60;;;;;;5076853;28;20037;-86
2021/04/10 00:49:16;;;;;;;20.42;13.15;;;5.20;97.10;;;;;;5076914;28;20056;-83
2021/04/10 00:51:42;;;;;;;14.88;10.88;;;5.20;97.20;;;;;;5061255;28;20135;-87
2021/04/10 00:54:08;;;;;;;16.73;10.73;;;5.20;97.80;;;;;;5076703;28;20060;-78
2021/04/10 00:56:33;;;;;;;17.27;11.10;;;5.40;97.50;;;;;;5077143;28;20043;-89
2021/04/10 00:58:59;;;;;;;18.50;10.60;;;5.40;97.40;;;;;;5078457;28;20041;-84
2021/04/10 01:01:25;;;;;;;15.15;10.57;;;5.50;97.40;;;;;;5060838;28;20028;-83
2021/04/10 01:03:51;;;;;;;19.25;11.90;;;5.50;97.00;;;;;;5080898;28;20017;-88
2021/04/10 01:06:26;;;;;;;17.65;10.80;;;5.50;96.70;;;;;;5079509;28;20020;-84
2021/04/10 01:08:53;;;;;;;18.77;11.20;;;5.40;96.20;;;;;;5062668;28;20125;-83
2021/04/10 01:11:48;;;;;;;16.77;11.15;;;5.20;96.20;;;;;;5063061;28;20119;-82
2021/04/10 01:14:22;;;;;;;14.25;9.63;;;5.10;96.60;;;;;;5079450;28;20035;-82
2021/04/10 01:17:09;;;;;;;14.45;9.90;;;5.20;96.20;;;;;;5078976;28;20029;-88
2021/04/10 01:20:01;;;;;;;14.10;10.57;;;5.20;96.10;;;;;;5068148;28;20421;-83
2021/04/10 01:22:36;;;;;;;15.77;10.93;;;5.00;96.30;;;;;;5055425;28;20118;-85
2021/04/10 01:25:09;;;;;;;16.85;10.20;;;4.80;97.70;;;;;;5039286;28;20112;-83
2021/04/10 01:27:45;;;;;;;18.58;10.52;;;5.00;97.70;;;;;;5055957;28;20021;-78
2021/04/10 01:30:17;;;;;;;16.60;10.00;;;4.90;97.30;;;;;;5055999;28;20413;-87
2021/04/10 01:32:53;;;;;;;15.63;8.82;;;5.00;96.90;;;;;;5041856;28;20025;-89
2021/04/10 01:35:20;;;;;;;11.70;9.13;;;5.00;96.70;;;;;;5037950;28;20036;-80
2021/04/10 01:37:58;;;;;;;14.35;9.05;;;5.10;96.00;;;;;;5038061;28;20508;-80
2021/04/10 01:40:27;;;;;;;14.57;9.20;;;5.00;95.90;;;;;;5041278;28;20025;-89
2021/04/10 01:42:56;;;;;;;11.48;7.82;;;4.90;95.90;;;;;;5060052;28;20036;-88
2021/04/10 01:45:22;;;;;;;12.63;9.13;;;4.80;96.30;;;;;;5063490;28;20013;-91
2021/04/10 01:47:49;;;;;;;12.00;8.52;;;4.80;96.50;;;;;;5059275;28;20017;-80
2021/04/10 01:50:16;;;;;;;13.57;8.23;;;4.90;96.70;;;;;;5039352;28;20021;-85
2021/04/10 01:52:45;;;;;;;14.80;10.02;;;5.00;96.00;;;;;;5056491;28;20036;-83
2021/04/10 01:55:12;;;;;;;13.85;9.52;;;4.70;96.40;;;;;;5057573;28;20037;-88
2021/04/10 01:57:38;;;;;;;13.65;9.57;;;4.60;97.30;;;;;;5059256;28;20045;-87
2021/04/10 02:00:07;;;;;;;11.38;8.13;;;4.80;96.80;;;;;;5058096;28;20369;-84
2021/04/10 02:02:41;;;;;;;14.05;9.18;;;4.30;96.60;;;;;;5058233;28;20029;-89
2021/04/10 02:05:12;;;;;;;13.48;9.25;;;4.10;98.50;;;;;;5062771;28;20021;-90
2021/04/10 02:07:42;;;;;;;12.07;9.10;;;4.00;98.70;;;;;;5062362;28;20543;-88
2021/04/10 02:10:09;;;;;;;13.70;9.55;;;4.10;98.80;;;;;;5060029;28;20377;-81
2021/04/10 02:12:37;;;;;;;14.30;9.13;;;4.50;97.50;;;;;;5062366;28;20025;-91
2021/04/10 02:15:05;;;;;;;15.63;9.18;;;4.00;97.50;;;;;;5044678;28;20533;-82
2021/04/10 02:17:31;;;;;;;14.43;9.43;;;4.20;98.50;;;;;;5062522;28;20033;-81
2021/04/10 02:19:57;;;;;;;10.98;8.38;;;4.50;98.00;;;;;;5060676;28;20051;-84
2021/04/10 02:22:23;;;;;;;12.13;8.02;;;4.60;97.90;;;;;;5057557;28;20060;-85
2021/04/10 02:24:50;;;;;;;12.40;8.77;;;4.60;98.20;;;;;;5040839;28;20150;-86
2021/04/10 02:27:16;;;;;;;13.02;8.93;;;4.70;97.40;;;;;;5060434;28;20048;-90
2021/04/10 02:29:43;;;;;;;16.42;8.80;;;4.70;97.30;;;;;;5043171;28;20029;-88
2021/04/10 02:32:17;;;;;;;12.02;8.88;;;4.70;97.30;;;;;;5059677;28;20021;-88
2021/04/10 02:35:23;;;;;;;12.20;9.23;;;4.80;97.40;;;;;;5042774;28;20028;-92
2021/04/10 02:37:50;;;;;;;12.25;8.85;;;4.60;97.70;;;;;;5048071;28;20438;-85
2021/04/10 02:40:19;;;;;;;14.15;9.15;;;4.50;98.00;;;;;;5059263;28;20021;-82
2021/04/10 02:42:47;;;;;;;11.27;8.30;;;4.60;97.70;;;;;;5035278;28;20023;-86
2021/04/10 02:45:20;;;;;;;11.65;7.88;;;4.40;98.10;;;;;;5053753;28;20033;-85
2021/04/10 02:47:49;;;;;;;13.40;9.00;;;4.50;98.00;;;;;;5036183;28;20036;-81
2021/04/10 02:50:19;;;;;;;12.57;8.35;;;4.50;97.40;;;;;;5055328;28;20028;-86
2021/04/10 02:52:47;;;;;;;14.32;8.43;;;4.50;97.10;;;;;;5039575;28;20128;-87
2021/04/10 02:55:19;;;;;;;13.75;9.02;;;4.50;97.40;;;;;;5057006;28;20040;-88
2021/04/10 02:57:45;;;;;;;10.45;8.02;;;4.30;97.50;;;;;;5056937;28;20053;-83
2021/04/10 03:00:15;;;;;;;13.65;8.60;;;4.40;97.50;;;;;;5056806;28;20116;-85
2021/04/10 03:02:41;;;;;;;13.25;8.98;;;4.50;97.20;;;;;;5056622;28;20033;-86
2021/04/10 03:05:10;;;;;;;13.10;8.07;;;4.60;96.70;;;;;;5057647;28;20362;-83
2021/04/10 03:07:37;;;;;;;12.07;8.77;;;4.60;96.70;;;;;;5037293;28;20485;-89
2021/04/10 03:10:03;;;;;;;11.93;8.63;;;4.70;96.60;;;;;;5056289;28;20025;-83
2021/04/10 03:12:29;;;;;;;14.45;7.47;;;4.40;97.30;;;;;;5036538;28;20055;-85
2021/04/10 03:14:55;;;;;;;14.52;10.05;;;4.20;98.30;;;;;;5036727;28;20029;-86
2021/04/10 03:17:22;;;;;;;14.98;9.13;;;4.30;98.70;;;;;;5036162;28;20024;-80
2021/04/10 03:19:50;;;;;;;13.35;9.05;;;4.40;98.30;;;;;;5055790;28;20025;-89
2021/04/10 03:22:16;;;;;;;13.05;8.95;;;4.50;98.00;;;;;;5054025;28;20048;-80
2021/04/10 03:24:44;;;;;;;13.25;8.55;;;4.40;98.70;;;;;;5055402;28;20025;-85
2021/04/10 03:27:11;;;;;;;13.13;7.72;;;4.20;99.50;;;;;;5054410;28;20048;-83
2021/04/10 03:29:38;;;;;;;11.50;8.15;;;4.10;99.70;;;;;;5057401;28;20059;-84
2021/04/10 03:32:06;;;;;;;13.50;9.10;;;4.30;99.90;;;;;;5053343;28;20021;-81
2021/04/10 03:34:34;;;;;;;15.80;8.90;;;4.40;99.60;;;;;;5053079;28;20127;-79
2021/04/10 03:37:00;;;;;;;13.32;9.93;;;4.00;99.80;;;;;;5034911;28;20045;-82
2021/04/10 03:39:27;;;;;;;14.27;9.75;;;3.70;99.90;;;;;;5055276;28;20192;-87
2021/04/10 03:41:53;;;;;;;14.15;9.20;;;3.60;99.90;;;;;;5036841;28;20068;-81
2021/04/10 03:44:19;;;;;;;20.15;10.00;;;3.80;99.90;;;;;;5055379;28;20049;-80
2021/04/10 03:46:44;;;;;;;14.82;10.85;;;4.00;99.90;;;;;;5037920;28;20104;-83
2021/04/10 03:49:10;;;;;;;16.50;11.25;;;3.60;99.90;;;;;;5055061;28;20036;-85
2021/04/10 03:51:38;;;;;;;17.85;11.23;;;3.50;99.90;;;;;;5055064;28;20078;-85
2021/04/10 03:54:04;;;;;;;14.90;11.18;;;3.00;99.90;;;;;;5055525;28;20446;-84
2021/04/10 03:56:30;;;;;;;16.63;11.05;;;3.40;99.90;;;;;;5037000;28;20472;-87
2021/04/10 03:58:56;;;;;;;18.35;10.93;;;3.70;99.90;;;;;;5054164;28;20492;-80
2021/04/10 04:01:22;;;;;;;14.68;10.93;;;3.80;99.90;;;;;;5056038;28;20075;-88
2021/04/10 04:03:48;;;;;;;16.52;9.75;;;3.90;99.90;;;;;;5059904;28;20017;-84
2021/04/10 04:06:14;;;;;;;15.98;9.45;;;3.60;99.90;;;;;;5056965;28;20047;-79
2021/04/10 04:08:40;;;;;;;14.80;10.90;;;3.70;99.90;;;;;;5056184;28;20044;-80
2021/04/10 04:11:05;;;;;;;14.88;10.68;;;3.50;99.90;;;;;;5056851;28;20025;-87
2021/04/10 04:13:31;;;;;;;14.77;9.95;;;3.60;99.90;;;;;;5057469;28;20036;-87
2021/04/10 04:15:57;;;;;;;14.80;10.20;;;3.70;99.90;;;;;;5058547;28;20021;-81
2021/04/10 04:18:23;;;;;;;13.90;9.77;;;3.30;99.90;;;;;;5056373;28;20032;-86
2021/04/10 04:20:48;;;;;;;17.85;11.00;;;3.50;99.90;;;;;;5058183;28;20027;-87
2021/04/10 04:23:14;;;;;;;19.38;11.57;;;3.70;99.90;;;;;;5056796;28;20076;-86
2021/04/10 04:25:40;;;;;;;15.13;10.55;;;3.50;99.90;;;;;;5039540;28;20041;-84
2021/04/10 04:28:06;;;;;;;18.27;11.13;;;3.50;99.90;;;;;;5056685;28;20051;-80
2021/04/10 04:30:31;;;;;;;14.85;10.93;;;3.60;99.90;;;;;;5057193;28;20032;-81
2021/04/10 04:32:57;;;;;;;26.00;11.63;;;3.70;99.90;;;;;;5056421;28;20094;-83
2021/04/10 04:35:23;;;;;;;18.88;11.23;;;3.70;99.90;;;;;;5038057;28;20052;-80
2021/04/10 04:37:49;;;;;;;14.77;10.30;;;3.50;99.90;;;;;;5037710;28;20032;-83
2021/04/10 04:40:15;;;;;;;13.32;9.32;;;3.50;99.90;;;;;;5055472;28;20032;-83
2021/04/10 04:42:41;;;;;;;14.93;9.27;;;3.50;99.90;;;;;;5055242;28;20066;-82
2021/04/10 04:45:07;;;;;;;12.52;8.48;;;3.60;99.90;;;;;;5055503;28;20056;-87
2021/04/10 04:47:33;;;;;;;11.38;8.70;;;3.60;99.90;;;;;;5056917;28;20021;-85
2021/04/10 04:50:00;;;;;;;14.82;9.25;;;3.60;99.90;;;;;;5056357;28;20021;-83
2021/04/10 04:52:29;;;;;;;17.00;8.68;;;3.60;99.90;;;;;;5055546;28;20032;-79
2021/04/10 04:54:55;;;;;;;13.03;8.87;;;3.70;99.90;;;;;;5054804;28;20040;-81
2021/04/10 04:57:21;;;;;;;14.30;8.65;;;3.80;99.90;;;;;;5048929;28;20055;-78
2021/04/10 04:59:47;;;;;;;12.77;8.27;;;3.90;99.90;;;;;;5073321;28;20123;-83
2021/04/10 05:02:14;;;;;;;13.48;9.05;;;4.00;99.90;;;;;;5072712;28;20036;-82
2021/04/10 05:04:40;;;;;;;15.25;9.35;;;4.00;99.90;;;;;;5056668;28;20115;-87
2021/04/10 05:07:06;;;;;;;17.17;9.80;;;3.90;99.90;;;;;;5054166;28;20048;-84
2021/04/10 05:09:31;;;;;;;13.50;8.60;;;3.90;99.90;;;;;;5072659;28;20036;-79
2021/04/10 05:11:57;;;;;;;19.30;9.90;;;4.00;99.90;;;;;;5072776;28;20024;-80
2021/04/10 05:14:23;;;;;;;14.02;9.85;;;4.20;99.40;;;;;;5073960;28;20021;-83
2021/04/10 05:16:49;;;;;;;14.13;9.85;;;4.30;99.30;;;;;;5073821;28;20399;-81
2021/04/10 05:19:15;;;;;;;14.98;9.00;;;4.30;99.70;;;;;;5071654;28;20113;-86
2021/04/10 05:21:41;;;;;;;14.50;8.73;;;4.40;99.70;;;;;;5052513;28;20041;-83
2021/04/10 05:24:07;;;;;;;15.00;10.48;;;4.50;98.70;;;;;;5037370;28;20036;-88
2021/04/10 05:26:33;;;;;;;15.25;9.25;;;4.40;98.00;;;;;;5070569;28;20051;-84
2021/04/10 05:28:59;;;;;;;13.90;8.90;;;4.50;97.80;;;;;;5077274;28;20479;-83
2021/04/10 05:31:25;;;;;;;15.48;9.68;;;4.30;99.00;;;;;;5073862;28;20028;-84
2021/04/10 05:33:50;;;;;;;14.85;9.57;;;4.00;99.60;;;;;;5072881;28;20089;-87
2021/04/10 05:36:16;;;;;;;16.50;9.52;;;3.80;99.90;;;;;;5057540;28;20094;-83
2021/04/10 05:38:42;;;;;;;14.02;9.95;;;3.80;99.90;;;;;;5075700;28;20052;-87
2021/04/10 05:41:08;;;;;;;16.98;9.95;;;4.10;99.90;;;;;;5074755;28;20039;-82
2021/04/10 05:43:34;;;;;;;14.75;9.80;;;4.80;98.90;;;;;;5057987;28;20039;-87
2021/04/10 05:46:02;;;;;;;14.57;9.48;;;4.80;98.90;;;;;;5055957;28;20031;-79
2021/04/10 05:48:28;;;;;;;17.85;10.15;;;5.00;98.40;;;;;;5077120;28;20056;-85
2021/04/10 05:50:54;;;;;;;18.42;10.65;;;5.20;97.70;;;;;;5077256;28;20025;-82
2021/04/10 05:53:27;;;;;;;18.08;10.80;;;5.40;96.70;;;;;;5075022;28;20585;-80
2021/04/10 05:55:53;;;;;;;19.65;11.93;;;4.80;96.80;;;;;;5057469;28;20434;-82
2021/04/10 05:58:19;;;;;;;18.08;10.80;;;4.90;97.80;;;;;;5052742;28;20068;-87
2021/04/10 06:00:45;;;;;;;18.25;11.00;;;5.10;96.80;;;;;;5057929;28;20056;-86
2021/04/10 06:03:11;;;;;;;17.30;10.93;;;4.80;97.30;;;;;;5054418;28;20021;-81
2021/04/10 06:05:37;;;;;;;20.88;11.55;;;4.50;98.10;;;;;;5055806;28;20024;-88
2021/04/10 06:08:03;;;;;;;15.10;10.82;;;4.90;97.60;;;;;;5054736;28;20112;-85
2021/04/10 06:10:28;;;;;;;17.55;10.45;;;5.30;97.00;;;;;;5050736;28;20496;-82
2021/04/10 06:12:54;;;;;;;17.90;11.05;;;5.60;96.00;;;;;;5053229;28;20021;-81
2021/04/10 06:15:20;;;;;;;20.73;12.38;;;5.70;95.20;;;;;;5053504;28;20036;-83
2021/04/10 06:17:46;;;;;;;18.45;12.13;;;5.80;95.00;;;;;;5053797;28;20052;-88
2021/04/10 06:20:14;;;;;;;22.85;12.65;;;6.00;94.40;;;;;;5053687;28;20032;-83
2021/04/10 06:22:40;;;;;;;24.83;12.63;;;6.20;94.10;;;;;;5052914;28;20029;-82
2021/04/10 06:25:07;;;;;;;18.02;11.95;;;6.20;93.00;;;;;;5052043;28;20025;-84
2021/04/10 06:27:34;;;;;;;19.90;13.23;;;5.80;93.50;;;;;;5051468;28;20032;-78
2021/04/10 06:30:00;;;;;;;20.02;12.63;;;6.00;93.10;;;;;;5053623;28;20022;-83
2021/04/10 06:32:26;;;;;;;55.42;27.88;;;6.30;92.60;;;;;;5049302;28;20028;-81
2021/04/10 06:34:51;;;;;;;36.08;20.42;;;6.50;92.20;;;;;;5050724;28;20033;-88
2021/04/10 06:37:17;;;;;;;71.07;35.78;;;6.70;91.80;;;;;;5050677;28;20033;-85
2021/04/10 06:39:43;;;;;;;25.98;16.40;;;6.80;91.30;;;;;;5052279;28;20116;-83
2021/04/10 06:42:09;;;;;;;38.13;14.75;;;6.50;91.30;;;;;;5033611;28;20354;-79
2021/04/10 06:44:35;;;;;;;16.17;11.35;;;6.00;91.10;;;;;;5030417;28;20577;-86
2021/04/10 06:47:02;;;;;;;16.40;11.07;;;5.90;91.70;;;;;;5034027;28;20033;-84
2021/04/10 06:49:30;;;;;;;21.42;11.45;;;5.90;92.20;;;;;;5040671;28;20028;-82
2021/04/10 06:51:57;;;;;;;18.95;11.32;;;6.20;91.60;;;;;;5040219;28;20030;-84
2021/04/10 06:54:29;;;;;;;16.65;11.05;;;6.40;91.30;;;;;;5038477;28;20082;-88
2021/04/10 06:57:09;;;;;;;21.05;11.00;;;6.60;88.90;;;;;;5038355;28;20508;-83
2021/04/10 06:59:44;;;;;;;19.00;12.15;;;6.60;87.80;;;;;;5061866;28;20070;-82
2021/04/10 07:02:14;;;;;;;23.15;11.68;;;6.70;88.80;;;;;;5056176;28;20163;-82
2021/04/10 07:04:40;;;;;;;21.92;11.68;;;6.80;87.90;;;;;;5059006;28;20028;-85
2021/04/10 07:07:06;;;;;;;18.95;11.95;;;7.10;86.80;;;;;;5038671;28;20033;-81
2021/04/10 07:09:36;;;;;;;31.15;12.27;;;7.30;85.90;;;;;;5049485;28;20087;-82
2021/04/10 07:12:05;;;;;;;21.45;11.77;;;7.20;87.30;;;;;;5049901;28;20027;-84
2021/04/10 07:14:30;;;;;;;20.05;11.68;;;7.40;85.70;;;;;;5071713;28;20032;-83
2021/04/10 07:16:57;;;;;;;19.85;11.88;;;7.50;85.10;;;;;;5052941;28;20106;-81
2021/04/10 07:19:28;;;;;;;18.70;11.05;;;7.70;85.50;;;;;;5053171;28;20032;-83
2021/04/10 07:22:12;;;;;;;18.17;12.23;;;7.70;85.30;;;;;;5034018;28;20021;-83
2021/04/10 07:24:46;;;;;;;20.60;11.63;;;8.00;84.40;;;;;;5052723;28;20029;-82
2021/04/10 07:27:18;;;;;;;17.23;11.40;;;8.00;82.80;;;;;;5069778;28;20379;-87
2021/04/10 07:29:49;;;;;;;18.75;12.07;;;7.90;80.10;;;;;;5053276;28;20071;-84
2021/04/10 07:32:38;;;;;;;19.63;10.55;;;8.10;79.60;;;;;;5070382;28;20055;-86
2021/04/10 07:35:09;;;;;;;17.52;10.68;;;8.20;76.50;;;;;;5055309;28;20111;-85
2021/04/10 07:37:51;;;;;;;21.83;11.38;;;8.20;75.40;;;;;;5072236;28;20028;-88
2021/04/10 07:40:24;;;;;;;17.58;9.18;;;8.40;75.50;;;;;;5073784;28;20028;-88
2021/04/10 07:42:51;;;;;;;12.15;9.10;;;8.40;72.70;;;;;;5056115;28;20071;-90
2021/04/10 07:45:30;;;;;;;13.10;8.75;;;8.50;72.20;;;;;;5073815;28;20016;-89
2021/04/10 07:48:10;;;;;;;11.23;7.15;;;8.50;70.40;;;;;;5075905;28;20040;-82
2021/04/10 07:50:37;;;;;;;11.25;6.93;;;8.60;69.40;;;;;;5074334;28;20017;-82
2021/04/10 07:53:22;;;;;;;13.52;8.25;;;8.30;67.20;;;;;;5075281;28;20048;-89
2021/04/10 07:55:49;;;;;;;12.23;7.82;;;8.30;69.40;;;;;;5076479;28;20029;-81
2021/04/10 07:58:32;;;;;;;10.32;6.78;;;8.50;70.40;;;;;;5076762;28;20064;-88
2021/04/10 08:01:04;;;;;;;9.00;6.53;;;8.70;69.30;;;;;;5079199;28;20083;-83
2021/04/10 08:03:38;;;;;;;12.25;8.05;;;8.80;68.60;;;;;;5060182;28;20031;-84
2021/04/10 08:06:04;;;;;;;13.75;7.72;;;8.90;68.60;;;;;;5077373;28;20158;-86
2021/04/10 08:08:32;;;;;;;11.63;8.50;;;8.70;67.90;;;;;;5058198;28;20251;-85
2021/04/10 08:11:05;;;;;;;14.10;7.97;;;8.70;70.50;;;;;;5078650;28;20024;-85
2021/04/10 08:13:33;;;;;;;13.10;8.18;;;8.90;69.70;;;;;;5059770;28;20024;-86
2021/04/10 08:16:21;;;;;;;16.33;9.88;;;9.00;69.20;;;;;;5060844;28;20122;-84
2021/04/10 08:18:59;;;;;;;15.07;8.88;;;9.00;69.90;;;;;;5077565;28;20028;-85
2021/04/10 08:21:31;;;;;;;12.75;7.75;;;9.10;69.10;;;;;;5044232;28;20163;-90
2021/04/10 08:23:58;;;;;;;18.35;8.07;;;9.00;66.70;;;;;;5039473;28;20040;-87
2021/04/10 08:26:24;;;;;;;11.05;7.25;;;9.10;66.30;;;;;;5066437;28;20054;-83
2021/04/10 08:28:51;;;;;;;20.67;8.00;;;9.40;65.90;;;;;;5057895;28;20303;-88
2021/04/10 08:31:17;;;;;;;10.90;6.50;;;9.60;66.60;;;;;;5073624;28;20380;-86
2021/04/10 08:33:43;;;;;;;11.65;7.00;;;9.80;64.50;;;;;;5079846;28;20373;-83
2021/04/10 08:36:10;;;;;;;15.98;10.40;;;10.30;68.10;;;;;;5078230;28;20036;-86
2021/04/10 08:38:39;;;;;;;31.67;19.38;;;11.50;66.90;;;;;;5058085;28;20535;-85
2021/04/10 08:41:07;;;;;;;12.50;6.75;;;11.40;61.60;;;;;;5074632;28;20020;-85
2021/04/10 08:43:38;;;;;;;10.05;6.47;;;11.20;59.60;;;;;;5055261;28;20027;-87
2021/04/10 08:46:08;;;;;;;9.27;6.20;;;11.10;57.90;;;;;;5057543;28;20039;-84
2021/04/10 08:48:36;;;;;;;12.35;7.20;;;11.30;57.70;;;;;;5056563;28;20025;-89
2021/04/10 08:51:05;;;;;;;8.63;6.53;;;11.40;57.60;;;;;;5074894;28;20028;-83
2021/04/10 08:53:36;;;;;;;8.00;5.78;;;11.80;55.80;;;;;;5056033;28;20029;-83
2021/04/10 08:56:12;;;;;;;9.20;6.18;;;11.70;54.30;;;;;;5071978;28;20144;-80
2021/04/10 08:58:42;;;;;;;11.30;6.70;;;12.00;54.40;;;;;;5076988;28;20048;-87
2021/04/10 09:01:15;;;;;;;9.07;6.25;;;12.40;54.80;;;;;;5073950;28;20384;-81
2021/04/10 09:03:47;;;;;;;11.48;7.03;;;12.60;53.50;;;;;;5062216;28;20024;-88
2021/04/10 09:06:22;;;;;;;35.08;19.55;;;13.10;59.00;;;;;;5076527;28;20422;-80
2021/04/10 09:08:51;;;;;;;17.10;11.00;;;14.00;62.20;;;;;;5073498;28;20028;-90
2021/04/10 09:11:21;;;;;;;29.90;18.63;;;14.50;52.20;;;;;;5076115;28;20029;-89
2021/04/10 09:13:49;;;;;;;21.13;12.55;;;14.50;54.20;;;;;;5075297;28;20024;-81
2021/04/10 09:16:22;;;;;;;40.00;25.05;;;14.70;51.10;;;;;;5076150;28;20062;-84
2021/04/10 09:18:53;;;;;;;31.40;19.92;;;14.90;50.20;;;;;;5053225;28;20369;-87
2021/04/10 09:21:24;;;;;;;216.77;126.95;;;14.90;50.60;;;;;;5074896;28;20021;-84
2021/04/10 09:23:51;;;;;;;17.38;11.93;;;14.80;48.30;;;;;;5056363;28;20234;-87
2021/04/10 09:26:19;;;;;;;13.35;7.60;;;14.60;48.50;;;;;;5076484;28;20371;-89
2021/04/10 09:28:54;;;;;;;8.73;6.10;;;14.50;48.60;;;;;;5074896;28;20023;-88
2021/04/10 09:31:39;;;;;;;9.73;5.65;;;14.20;48.60;;;;;;5048132;28;20052;-88
2021/04/10 09:34:25;;;;;;;12.25;6.60;;;14.40;48.40;;;;;;5068174;28;20024;-86
2021/04/10 09:36:51;;;;;;;17.35;6.25;;;14.10;48.50;;;;;;5040431;28;20041;-84
2021/04/10 09:39:57;;;;;;;9.68;6.18;;;14.30;48.60;;;;;;5053139;28;20028;-81
2021/04/10 09:42:44;;;;;;;9.50;5.60;;;14.50;48.40;;;;;;5069232;28;20089;-85
2021/04/10 09:45:25;;;;;;;11.93;5.68;;;14.90;47.50;;;;;;5058084;28;20476;-87
2021/04/10 09:48:00;;;;;;;11.15;6.10;;;14.60;46.40;;;;;;5076314;28;20025;-85
2021/04/10 09:51:05;;;;;;;11.50;6.00;;;14.70;46.50;;;;;;5056454;28;20025;-82
2021/04/10 09:53:32;;;;;;;9.63;5.00;;;15.00;47.00;;;;;;4954993;28;20039;-87
2021/04/10 09:56:03;;;;;;;10.85;5.15;;;14.90;45.20;;;;;;4973038;28;20030;-82
2021/04/10 09:58:40;;;;;;;9.05;5.60;;;14.80;45.90;;;;;;5024754;28;20044;-85
2021/04/10 10:01:21;;;;;;;10.77;5.88;;;15.40;46.00;;;;;;5075322;28;20104;-86
2021/04/10 10:03:49;;;;;;;8.50;5.25;;;15.80;46.00;;;;;;5058313;28;20036;-88
2021/04/10 10:06:24;;;;;;;9.35;5.32;;;15.40;44.50;;;;;;5071146;28;20060;-84
2021/04/10 10:08:50;;;;;;;6.90;4.40;;;15.90;45.70;;;;;;5052907;28;20032;-84
2021/04/10 10:11:18;;;;;;;9.30;5.20;;;15.90;43.20;;;;;;5062587;28;20375;-83
2021/04/10 10:13:45;;;;;;;6.40;4.05;;;15.50;42.70;;;;;;5055727;28;20044;-83
2021/04/10 10:16:11;;;;;;;7.32;4.35;;;15.30;42.20;;;;;;5074801;28;20119;-87
2021/04/10 10:18:39;;;;;;;7.18;3.95;;;15.70;43.10;;;;;;5054665;28;20025;-81
2021/04/10 10:21:15;;;;;;;7.45;3.55;;;16.30;43.00;;;;;;5055737;28;20027;-80
2021/04/10 10:23:50;;;;;;;5.72;3.80;;;16.00;40.60;;;;;;5072866;28;20049;-86
2021/04/10 10:26:17;;;;;;;7.05;4.28;;;16.00;41.60;;;;;;5073501;28;20025;-90
2021/04/10 10:28:45;;;;;;;5.70;3.20;;;16.40;40.90;;;;;;5072265;28;20157;-83
2021/04/10 10:34:09;;;;;;;8.65;5.07;;;16.40;40.60;;;;;;5061853;28;20764;-84
2021/04/10 10:36:55;;;;;;;20.63;12.13;;;16.80;40.40;;;;;;5071824;28;20048;-84
2021/04/10 10:39:32;;;;;;;8.45;5.68;;;17.60;44.20;;;;;;5036935;28;20043;-82
2021/04/10 10:42:00;;;;;;;4.28;2.88;;;18.00;39.20;;;;;;5069630;28;20020;-81
2021/04/10 10:44:27;;;;;;;5.65;3.22;;;17.50;36.80;;;;;;5053565;28;20111;-82
2021/04/10 10:47:00;;;;;;;8.00;3.50;;;17.60;38.10;;;;;;5071040;28;20395;-82
2021/04/10 10:49:26;;;;;;;8.35;3.55;;;17.20;38.90;;;;;;5071638;28;20039;-86
2021/04/10 10:51:52;;;;;;;7.40;3.60;;;17.10;39.40;;;;;;5071410;28;20096;-80
2021/04/10 10:54:18;;;;;;;5.60;3.47;;;17.40;40.00;;;;;;5051282;28;20032;-80
2021/04/10 10:56:44;;;;;;;6.15;3.30;;;17.20;38.70;;;;;;5052786;28;20032;-82
2021/04/10 10:59:10;;;;;;;7.57;3.30;;;17.20;40.10;;;;;;5070821;28;20040;-80
2021/04/10 11:01:41;;;;;;;6.70;3.13;;;17.60;39.70;;;;;;5072396;28;20036;-86
2021/04/10 11:07:12;;;;;;;5.80;2.97;;;17.50;38.30;;;;;;5069320;28;20082;-82
2021/04/10 11:09:39;;;;;;;6.13;2.70;;;17.60;37.80;;;;;;5053168;28;20056;-81
2021/04/10 11:12:11;;;;;;;6.28;3.40;;;18.30;37.70;;;;;;5071134;28;20063;-81
2021/04/10 11:14:45;;;;;;;6.25;3.28;;;18.30;37.50;;;;;;5070187;28;20028;-81
2021/04/10 11:17:11;;;;;;;5.55;3.38;;;18.20;37.30;;;;;;5068189;28;20166;-79
2021/04/10 11:19:45;;;;;;;5.72;3.00;;;18.20;37.90;;;;;;5071098;28;20021;-85
2021/04/10 11:22:16;;;;;;;6.13;2.72;;;18.50;38.10;;;;;;5054031;28;20036;-82
2021/04/10 11:24:49;;;;;;;5.32;2.75;;;18.60;36.80;;;;;;5051504;28;20104;-80
2021/04/10 11:27:16;;;;;;;5.85;2.90;;;19.10;36.90;;;;;;5048928;28;20035;-81
2021/04/10 11:29:59;;;;;;;6.82;3.25;;;19.30;36.40;;;;;;5046808;28;20032;-83
2021/04/10 11:32:40;;;;;;;6.45;3.30;;;19.10;38.00;;;;;;5070955;28;20060;-79
2021/04/10 11:35:23;;;;;;;7.10;2.95;;;18.60;37.90;;;;;;5052293;28;20032;-80
2021/04/10 11:37:55;;;;;;;6.85;3.03;;;18.90;37.70;;;;;;5070562;28;20044;-79
2021/04/10 11:40:27;;;;;;;5.95;2.60;;;19.10;37.90;;;;;;5052092;28;20119;-82
2021/04/10 11:42:56;;;;;;;4.85;2.90;;;19.60;36.70;;;;;;5051482;28;20028;-79
2021/04/10 11:45:38;;;;;;;5.63;2.78;;;20.30;37.40;;;;;;5070618;28;20051;-80
2021/04/10 11:48:19;;;;;;;7.65;2.78;;;20.60;37.10;;;;;;5071556;28;20470;-80
2021/04/10 11:50:55;;;;;;;11.07;2.90;;;20.40;35.70;;;;;;5072361;28;20024;-83
2021/04/10 11:53:27;;;;;;;5.50;2.72;;;19.20;37.10;;;;;;5089051;28;20047;-89
2021/04/10 11:55:54;;;;;;;5.38;2.92;;;18.60;37.10;;;;;;5084507;28;20025;-83
2021/04/10 11:58:33;;;;;;;45.65;33.10;;;18.30;37.30;;;;;;5071116;28;20051;-87
2021/04/10 12:01:07;;;;;;;11.75;6.47;;;19.00;38.60;;;;;;5074350;28;20155;-86
2021/04/10 12:03:45;;;;;;;20.23;12.05;;;19.10;37.10;;;;;;5073073;28;20017;-90
2021/04/10 12:06:33;;;;;;;15.25;8.98;;;20.10;39.20;;;;;;5070952;28;20089;-85
2021/04/10 12:11:51;;;;;;;14.25;7.75;;;20.20;37.40;;;;;;5071507;28;20174;-85
2021/04/10 12:14:20;;;;;;;6.60;3.80;;;20.20;37.10;;;;;;5052541;28;20119;-87
2021/04/10 12:16:46;;;;;;;10.88;4.38;;;19.60;36.50;;;;;;5050873;28;20507;-83
2021/04/10 12:20:10;;;;;;;7.13;4.00;;;19.70;37.70;;;;;;5070710;28;20033;-87
2021/04/10 12:22:49;;;;;;;5.30;2.88;;;18.60;37.30;;;;;;5034907;28;20064;-84
2021/04/10 12:37:27;;;;;;;;;;;20.50;36.90;;;;;;5035019;28;20095;-91
2021/04/10 12:39:54;;;;;;;6.60;3.08;;;20.70;35.20;;;;;;5018208;28;19913;-91
2021/04/10 12:42:38;;;;;;;5.80;2.80;;;20.60;35.10;;;;;;5035055;28;20028;-90
2021/04/10 12:45:08;;;;;;;7.05;2.80;;;21.00;35.10;;;;;;5019668;28;20057;-84
2021/04/10 12:47:39;;;;;;;4.35;2.33;;;21.70;35.30;;;;;;5036282;28;20083;-86
2021/04/10 12:50:07;;;;;;;7.47;3.67;;;21.40;33.80;;;;;;5002935;28;20029;-91
2021/04/10 12:53:02;;;;;;;4.50;2.80;;;21.70;35.40;;;;;;5001130;28;20369;-86
2021/04/10 12:55:54;;;;;;;17.00;3.53;;;21.20;34.50;;;;;;5018616;28;20480;-86
2021/04/10 12:59:02;;;;;;;6.75;2.58;;;21.30;33.50;;;;;;5033019;28;20417;-86
2021/04/10 13:01:28;;;;;;;7.30;2.75;;;21.30;34.40;;;;;;5010618;28;20041;-86
2021/04/10 13:04:51;;;;;;;8.07;2.60;;;22.40;34.90;;;;;;5015282;28;20021;-85
2021/04/10 13:07:17;;;;;;;5.65;2.60;;;22.30;36.50;;;;;;5009695;28;20017;-87
2021/04/10 13:09:45;;;;;;;5.18;2.63;;;23.20;39.10;;;;;;5034106;28;20033;-86
2021/04/10 13:12:18;;;;;;;6.43;2.55;;;23.30;35.90;;;;;;5035368;28;20037;-86
2021/04/10 13:14:52;;;;;;;6.20;2.90;;;22.20;34.70;;;;;;5036087;28;20029;-87
2021/04/10 13:17:36;;;;;;;18.40;14.57;;;21.80;36.30;;;;;;4992444;28;20395;-88
2021/04/10 13:20:07;;;;;;;40.42;28.42;;;22.10;36.20;;;;;;4990328;28;20054;-87